Portada
METAR-TAF:

METAR-TAF

Aeroports :

Armilla

Granada, Espanya

latitud: 37-08N, longitud: 003-38-08W, altitud: 700 m

Observació

L'informe es va fer fa 9 hores i 7 minuts, a les 13:00 UTC
Vent 4 kt del Sud-Oest, variant entre Sud/Sud-Est i Nord-Oest
Temperatura 31°C
Humitat 19%
Pressió 1023 hPa
Visibilitat 10 km o més
sense núvols per sota de 1500 mi sense presència de cumulonimbus.

METAR: LEGA 251300Z 23004KT 150V310 CAVOK 31/05 Q1023

Hora: 00:07 (22:07 UTC)

Pronòstic

L'informe es va fer fa 17 hores i 7 minuts, a les 05:00 UTC
Pronòstic vàlid del 25 a les 06 UTC al 25 a les 15 UTC
Vent 6 kt del Sud
Visibilitat 10 km o més
sense núvols per sota de 1500 mi sense presència de cumulonimbus.

TAF: LEGA 250500Z 2506/2515 17006KT CAVOK

Observacions i pronòstics meteorològics de més de 4000 aeroports (METAR i TAF).

Les estacions disponibles són els punts grocs i vermells al mapa.

Posi el ratolí al punt desitjat per veure el nom de l'estació.

Feu clic per veure les observacions i els pronòstics meteorològics.

Per canviar el mapa: feu clic els botons verds amb una creu de color negre per apropar; al botó verd amb un guió per allunyar la imatge; o en les fletxes verdes per a mapes adjacents.


METAR-TAF: